Time;durP1;ratioP1;P1;durP2;ratioP2;P2;SDS_P1;SDS_P2;PMS_P1;PMS_P2;Temp;Humidity;BMP_temperature;BMP_pressure;BME280_temperature;BME280_humidity;BME280_pressure;Samples;Min_cycle;Max_cycle;Signal;HPM_P1;HPM_P2
2023/12/24 00:01:10;;;;;;;244.10;153.80;;;;;;;11.97;100.00;97405.91;5057438;28;20047;-55
2023/12/24 00:03:37;;;;;;;179.05;114.97;;;;;;;11.97;100.00;97390.25;5057111;28;20028;-54
2023/12/24 00:06:03;;;;;;;120.90;49.47;;;;;;;12.21;100.00;97390.72;5059000;28;20094;-54
2023/12/24 00:08:31;;;;;;;187.32;120.05;;;;;;;11.65;100.00;97389.13;5056869;28;20017;-55
2023/12/24 00:10:57;;;;;;;140.68;84.03;;;;;;;12.29;100.00;97388.81;5057090;28;20052;-55
2023/12/24 00:13:23;;;;;;;362.42;303.05;;;;;;;12.76;100.00;97391.31;5058382;28;20016;-54
2023/12/24 00:15:49;;;;;;;146.48;99.47;;;;;;;12.43;100.00;97396.34;5057535;28;20439;-55
2023/12/24 00:18:14;;;;;;;238.48;152.30;;;;;;;12.25;100.00;97392.34;5051175;28;20485;-54
2023/12/24 00:20:40;;;;;;;174.10;138.32;;;;;;;11.65;100.00;97404.75;5056457;28;20075;-55
2023/12/24 00:23:07;;;;;;;91.93;19.70;;;;;;;11.39;100.00;97403.44;5057171;28;20295;-56
2023/12/24 00:25:34;;;;;;;162.77;124.00;;;;;;;11.33;100.00;97389.59;5056381;28;20512;-55
2023/12/24 00:27:59;;;;;;;288.42;216.48;;;;;;;13.13;100.00;97371.34;5058637;28;20012;-54
2023/12/24 00:30:28;;;;;;;251.55;103.63;;;;;;;12.57;100.00;97388.25;5056204;28;20079;-55
2023/12/24 00:32:54;;;;;;;114.47;62.63;;;;;;;12.21;100.00;97401.16;5059015;28;20340;-56
2023/12/24 00:35:23;;;;;;;275.67;219.00;;;;;;;13.24;100.00;97397.22;5055439;28;20377;-55
2023/12/24 00:37:49;;;;;;;84.00;42.35;;;;;;;12.42;100.00;97401.59;5058712;28;20036;-56
2023/12/24 00:40:18;;;;;;;119.68;23.17;;;;;;;12.32;100.00;97391.34;5056508;28;20024;-54
2023/12/24 00:42:44;;;;;;;141.05;50.65;;;;;;;11.79;100.00;97394.94;5058818;28;20009;-54
2023/12/24 00:45:11;;;;;;;215.07;178.52;;;;;;;11.67;100.00;97392.53;5057251;28;20032;-55
2023/12/24 00:47:37;;;;;;;89.68;19.42;;;;;;;11.48;100.00;97413.69;5059932;28;20036;-54
2023/12/24 00:50:04;;;;;;;211.13;163.35;;;;;;;11.74;100.00;97406.31;5057738;28;20032;-56
2023/12/24 00:52:30;;;;;;;71.32;29.38;;;;;;;12.52;100.00;97413.56;5056939;28;20321;-55
2023/12/24 00:54:55;;;;;;;81.45;30.55;;;;;;;11.55;100.00;97415.28;5059184;28;20280;-53
2023/12/24 00:57:20;;;;;;;135.43;48.92;;;;;;;11.88;100.00;97411.28;5057587;28;20278;-54
2023/12/24 00:59:46;;;;;;;67.55;17.00;;;;;;;11.57;100.00;97426.56;5058235;28;20509;-53
2023/12/24 01:02:11;;;;;;;107.47;69.82;;;;;;;11.38;100.00;97417.31;5055371;28;20024;-54
2023/12/24 01:04:37;;;;;;;174.00;154.43;;;;;;;12.14;100.00;97416.03;5055055;28;20624;-54
2023/12/24 01:07:03;;;;;;;126.82;66.00;;;;;;;11.75;100.00;97410.63;5051785;28;20042;-54
2023/12/24 01:09:28;;;;;;;134.73;30.63;;;;;;;12.21;100.00;97408.97;5053314;28;20028;-53
2023/12/24 01:11:53;;;;;;;119.88;52.10;;;;;;;11.68;100.00;97402.06;5053143;28;20071;-52
2023/12/24 01:14:19;;;;;;;179.98;83.13;;;;;;;12.03;100.00;97397.94;5053376;28;20048;-53
2023/12/24 01:16:45;;;;;;;136.20;72.10;;;;;;;11.85;100.00;97397.41;5053574;28;20060;-55
2023/12/24 01:19:10;;;;;;;119.47;32.03;;;;;;;11.48;100.00;97392.84;5054922;28;20684;-53
2023/12/24 01:21:35;;;;;;;88.53;29.98;;;;;;;11.58;100.00;97391.81;5052186;28;20052;-54
2023/12/24 01:24:01;;;;;;;163.05;99.70;;;;;;;11.93;100.00;97399.03;5054583;28;20111;-55
2023/12/24 01:26:26;;;;;;;244.05;152.27;;;;;;;11.33;100.00;97406.97;5051234;28;20036;-53
2023/12/24 01:28:51;;;;;;;186.13;106.03;;;;;;;11.12;100.00;97415.97;5053860;28;20059;-54
2023/12/24 01:31:17;;;;;;;161.70;25.88;;;;;;;11.04;100.00;97419.56;5051301;28;20029;-54
2023/12/24 01:33:42;;;;;;;100.38;16.40;;;;;;;11.46;100.00;97425.84;5051036;28;20056;-55
2023/12/24 01:36:08;;;;;;;136.10;80.78;;;;;;;10.96;100.00;97404.94;5051825;28;20515;-55
2023/12/24 01:38:33;;;;;;;205.50;143.77;;;;;;;11.60;100.00;97407.41;5051616;28;20040;-56
2023/12/24 01:40:59;;;;;;;135.15;39.65;;;;;;;11.22;100.00;97417.56;5051512;28;20257;-54
2023/12/24 01:43:25;;;;;;;177.63;39.10;;;;;;;11.41;100.00;97405.13;5052504;28;20047;-54
2023/12/24 01:45:50;;;;;;;123.25;21.75;;;;;;;11.37;100.00;97415.59;5051684;28;20075;-55
2023/12/24 01:48:16;;;;;;;143.18;30.50;;;;;;;11.48;100.00;97413.69;5052260;28;20033;-52
2023/12/24 01:50:45;;;;;;;193.75;155.25;;;;;;;12.20;100.00;97399.41;5051379;28;20063;-53
2023/12/24 01:53:11;;;;;;;247.30;218.43;;;;;;;12.16;100.00;97418.63;5053788;28;20071;-55
2023/12/24 01:55:37;;;;;;;219.20;191.40;;;;;;;11.90;100.00;97414.72;5052392;28;20689;-55
2023/12/24 01:58:04;;;;;;;92.80;44.75;;;;;;;11.41;100.00;97419.88;5053584;28;20025;-56
2023/12/24 02:00:29;;;;;;;226.82;113.88;;;;;;;11.85;100.00;97420.03;5051965;28;20032;-55
2023/12/24 02:02:55;;;;;;;121.15;63.75;;;;;;;11.33;100.00;97405.22;5052066;28;20044;-54
2023/12/24 02:05:21;;;;;;;185.38;87.28;;;;;;;11.27;100.00;97405.34;5050726;28;20017;-55
2023/12/24 02:07:47;;;;;;;154.65;85.43;;;;;;;11.58;100.00;97407.44;5053799;28;20044;-55
2023/12/24 02:10:13;;;;;;;145.18;108.57;;;;;;;11.59;100.00;97398.72;5052241;28;20017;-53
2023/12/24 02:12:39;;;;;;;177.13;156.07;;;;;;;12.62;100.00;97424.69;5052022;28;20071;-52
2023/12/24 02:15:05;;;;;;;141.60;78.53;;;;;;;12.19;100.00;97414.22;5052655;28;20029;-53
2023/12/24 02:17:32;;;;;;;160.63;42.88;;;;;;;11.96;100.00;97409.41;5051516;28;20020;-54
2023/12/24 02:19:58;;;;;;;195.38;128.43;;;;;;;12.16;100.00;97411.66;5053518;28;20024;-55
2023/12/24 02:22:23;;;;;;;197.35;61.22;;;;;;;12.01;100.00;97425.81;5052288;28;20040;-54
2023/12/24 02:24:49;;;;;;;128.43;33.50;;;;;;;12.36;100.00;97434.72;5054389;28;20094;-54
2023/12/24 02:27:29;;;;;;;110.72;28.30;;;;;;;13.02;100.00;97425.56;5053205;28;20028;-53
2023/12/24 02:29:59;;;;;;;275.17;243.23;;;;;;;12.65;100.00;97413.31;5052435;28;20160;-54
2023/12/24 02:32:25;;;;;;;158.57;66.53;;;;;;;12.24;100.00;97417.59;5049668;28;20094;-53
2023/12/24 02:34:51;;;;;;;115.10;19.13;;;;;;;12.27;100.00;97414.06;5052462;28;20022;-53
2023/12/24 02:37:16;;;;;;;86.97;29.17;;;;;;;12.22;100.00;97414.13;5050616;28;20036;-54
2023/12/24 02:39:42;;;;;;;87.25;17.00;;;;;;;11.80;100.00;97408.81;5052208;28;20300;-54
2023/12/24 02:42:08;;;;;;;133.82;46.50;;;;;;;11.96;100.00;97417.22;5051002;28;20033;-54
2023/12/24 02:44:35;;;;;;;168.80;43.22;;;;;;;12.07;100.00;97412.69;5051223;28;20459;-54
2023/12/24 02:47:00;;;;;;;110.10;47.95;;;;;;;11.77;100.00;97422.72;5051395;28;20044;-54
2023/12/24 02:49:26;;;;;;;373.48;241.15;;;;;;;11.80;100.00;97414.88;5050312;28;20043;-56
2023/12/24 02:51:51;;;;;;;136.80;41.75;;;;;;;12.55;100.00;97408.28;5052382;28;20032;-56
2023/12/24 02:54:16;;;;;;;218.32;170.05;;;;;;;12.99;100.00;97412.59;5053541;28;20595;-55
2023/12/24 02:56:42;;;;;;;325.55;245.32;;;;;;;12.09;100.00;97397.88;5049511;28;20639;-53
2023/12/24 02:59:07;;;;;;;150.95;39.17;;;;;;;11.55;100.00;97399.66;5051989;28;20099;-53
2023/12/24 03:01:32;;;;;;;146.55;48.83;;;;;;;11.78;100.00;97407.97;5050583;28;20048;-55
2023/12/24 03:03:59;;;;;;;104.43;21.33;;;;;;;11.65;100.00;97407.34;5052119;28;20313;-55
2023/12/24 03:06:24;;;;;;;165.40;81.10;;;;;;;11.48;100.00;97402.41;5051277;28;20422;-56
2023/12/24 03:08:50;;;;;;;131.35;101.22;;;;;;;11.72;100.00;97409.81;5055201;28;20935;-54
2023/12/24 03:11:15;;;;;;;105.72;37.33;;;;;;;11.92;100.00;97402.53;5051783;28;20037;-54
2023/12/24 03:13:40;;;;;;;224.68;184.48;;;;;;;11.76;100.00;97401.94;5053714;28;20040;-55
2023/12/24 03:16:06;;;;;;;150.50;85.25;;;;;;;11.98;100.00;97391.97;5052630;28;20040;-55
2023/12/24 03:18:32;;;;;;;209.10;107.10;;;;;;;13.15;100.00;97392.22;5052448;28;20102;-54
2023/12/24 03:20:59;;;;;;;286.25;204.70;;;;;;;13.82;100.00;97388.00;5054111;28;20032;-55
2023/12/24 03:23:24;;;;;;;180.23;109.57;;;;;;;13.29;100.00;97376.22;5052994;28;20499;-54
2023/12/24 03:25:49;;;;;;;94.43;50.53;;;;;;;12.67;100.00;97398.47;5054058;28;20555;-54
2023/12/24 03:28:14;;;;;;;127.30;94.65;;;;;;;13.16;100.00;97380.88;5055838;28;20095;-54
2023/12/24 03:30:40;;;;;;;141.75;93.95;;;;;;;12.45;100.00;97393.72;5051701;28;20483;-54
2023/12/24 03:33:05;;;;;;;140.73;111.85;;;;;;;12.55;100.00;97373.53;5054167;28;20496;-55
2023/12/24 03:35:30;;;;;;;140.35;75.32;;;;;;;12.61;100.00;97369.03;5052020;28;20052;-54
2023/12/24 03:37:56;;;;;;;104.80;46.40;;;;;;;12.11;100.00;97377.00;5053582;28;20021;-54
2023/12/24 03:40:21;;;;;;;246.30;194.50;;;;;;;12.37;100.00;97368.66;5052715;28;20036;-54
2023/12/24 03:42:46;;;;;;;210.65;146.10;;;;;;;12.28;100.00;97355.81;5053824;28;20020;-54
2023/12/24 03:45:12;;;;;;;217.90;147.45;;;;;;;14.04;100.00;97351.66;5052853;28;20028;-54
2023/12/24 03:47:38;;;;;;;410.77;247.48;;;;;;;13.91;100.00;97356.38;5053153;28;20107;-54
2023/12/24 03:50:05;;;;;;;85.72;50.50;;;;;;;13.43;100.00;97375.88;5053289;28;20056;-54
2023/12/24 03:52:30;;;;;;;178.75;94.20;;;;;;;13.05;100.00;97375.03;5051862;28;20037;-55
2023/12/24 03:54:55;;;;;;;195.38;146.85;;;;;;;12.91;100.00;97367.53;5054721;28;20031;-53
2023/12/24 03:57:21;;;;;;;377.67;219.73;;;;;;;12.96;100.00;97363.91;5055225;28;20115;-55
2023/12/24 03:59:46;;;;;;;141.05;102.07;;;;;;;13.31;100.00;97361.34;5053338;28;20032;-53
2023/12/24 04:02:11;;;;;;;138.85;90.53;;;;;;;12.81;100.00;97359.06;5053332;28;20064;-54
2023/12/24 04:04:37;;;;;;;104.47;31.65;;;;;;;12.73;100.00;97375.72;5053778;28;20032;-54
2023/12/24 04:07:02;;;;;;;129.05;69.47;;;;;;;12.75;100.00;97379.19;5053258;28;20037;-53
2023/12/24 04:09:29;;;;;;;140.75;38.15;;;;;;;13.72;100.00;97373.44;5052463;28;20751;-54
2023/12/24 04:11:55;;;;;;;96.43;44.35;;;;;;;13.33;100.00;97367.38;5051913;28;20480;-55
2023/12/24 04:14:20;;;;;;;260.70;196.88;;;;;;;12.84;100.00;97367.66;5054505;28;20108;-55
2023/12/24 04:16:45;;;;;;;216.77;164.10;;;;;;;12.65;100.00;97374.19;5051330;28;20037;-53
2023/12/24 04:19:11;;;;;;;146.40;100.22;;;;;;;13.09;100.00;97372.31;5052954;28;20084;-54
2023/12/24 04:21:36;;;;;;;196.50;121.45;;;;;;;13.11;100.00;97369.69;5051125;28;20048;-55
2023/12/24 04:24:02;;;;;;;188.45;162.82;;;;;;;12.79;100.00;97368.66;5054211;28;20237;-53
2023/12/24 04:26:28;;;;;;;139.00;82.78;;;;;;;12.72;100.00;97360.09;5051910;28;20051;-53
2023/12/24 04:28:53;;;;;;;220.88;162.82;;;;;;;13.31;100.00;97363.09;5053941;28;20020;-55
2023/12/24 04:31:18;;;;;;;164.93;115.97;;;;;;;13.46;100.00;97354.91;5053843;28;20037;-54
2023/12/24 04:33:44;;;;;;;64.38;16.63;;;;;;;12.60;100.00;97374.28;5052775;28;20488;-53
2023/12/24 04:36:17;;;;;;;100.55;38.00;;;;;;;12.47;100.00;97363.25;5053628;28;20504;-54
2023/12/24 04:38:42;;;;;;;336.90;187.60;;;;;;;12.24;100.00;97362.84;5052431;28;20033;-54
2023/12/24 04:41:15;;;;;;;278.67;249.10;;;;;;;12.40;100.00;97377.31;5055638;28;20106;-55
2023/12/24 04:43:40;;;;;;;223.65;162.13;;;;;;;12.82;100.00;97379.91;5056392;28;20040;-55
2023/12/24 04:46:05;;;;;;;150.57;116.32;;;;;;;12.48;100.00;97380.63;5057240;28;20062;-53
2023/12/24 04:48:30;;;;;;;191.00;97.43;;;;;;;12.24;100.00;97381.09;5055175;28;20028;-53
2023/12/24 04:50:56;;;;;;;204.98;145.95;;;;;;;12.72;100.00;97376.63;5054658;28;20271;-55
2023/12/24 04:53:21;;;;;;;226.77;143.93;;;;;;;13.27;100.00;97375.38;5057655;28;20074;-55
2023/12/24 04:55:48;;;;;;;101.03;63.50;;;;;;;13.23;100.00;97368.53;5049043;28;20154;-53
2023/12/24 04:58:13;;;;;;;111.57;55.55;;;;;;;12.30;100.00;97369.69;5058585;28;20532;-53
2023/12/24 05:00:39;;;;;;;237.25;142.88;;;;;;;12.30;100.00;97351.44;5055069;28;20044;-55
2023/12/24 05:03:04;;;;;;;77.50;28.67;;;;;;;12.29;100.00;97349.69;5057478;28;20039;-54
2023/12/24 05:05:30;;;;;;;238.05;188.98;;;;;;;12.47;100.00;97352.84;5054772;28;20048;-54
2023/12/24 05:07:55;;;;;;;111.63;52.28;;;;;;;13.25;100.00;97343.25;5057255;28;20024;-53
2023/12/24 05:10:21;;;;;;;58.72;10.68;;;;;;;11.82;100.00;97341.91;5056700;28;20251;-54
2023/12/24 05:12:46;;;;;;;81.10;21.50;;;;;;;11.78;100.00;97348.94;5053702;28;20020;-55
2023/12/24 05:15:12;;;;;;;93.55;45.10;;;;;;;12.42;100.00;97339.88;5057708;28;20024;-55
2023/12/24 05:17:37;;;;;;;252.13;132.50;;;;;;;13.06;100.00;97342.84;5054152;28;20017;-54
2023/12/24 05:20:03;;;;;;;105.10;64.00;;;;;;;12.07;100.00;97338.84;5056352;28;20036;-55
2023/12/24 05:22:28;;;;;;;290.02;236.80;;;;;;;13.73;100.00;97341.19;5054805;28;20029;-54
2023/12/24 05:24:54;;;;;;;327.73;242.57;;;;;;;12.96;100.00;97350.84;5057555;28;20025;-55
2023/12/24 05:27:19;;;;;;;277.02;246.73;;;;;;;12.87;100.00;97343.25;5057660;28;20094;-55
2023/12/24 05:29:45;;;;;;;139.13;47.28;;;;;;;12.17;100.00;97349.97;5054978;28;20271;-56
2023/12/24 05:32:10;;;;;;;259.83;201.23;;;;;;;12.72;100.00;97342.72;5056204;28;20098;-53
2023/12/24 05:34:35;;;;;;;201.13;126.35;;;;;;;12.76;100.00;97346.09;5056228;28;20365;-54
2023/12/24 05:37:00;;;;;;;259.90;218.80;;;;;;;12.50;100.00;97356.22;5056717;28;20634;-54
2023/12/24 05:39:26;;;;;;;94.75;34.25;;;;;;;11.73;100.00;97350.72;5056699;28;20217;-54
2023/12/24 05:41:52;;;;;;;267.52;188.00;;;;;;;12.70;100.00;97357.53;5053134;28;20589;-54
2023/12/24 05:44:17;;;;;;;206.20;134.82;;;;;;;12.64;100.00;97349.84;5056953;28;20016;-54
2023/12/24 05:46:42;;;;;;;137.57;20.73;;;;;;;11.77;100.00;97359.38;5054576;28;20040;-56
2023/12/24 05:49:08;;;;;;;121.00;68.32;;;;;;;12.15;100.00;97354.34;5055601;28;20035;-53
2023/12/24 05:51:34;;;;;;;355.38;265.48;;;;;;;12.93;100.00;97348.34;5053986;28;20036;-54
2023/12/24 05:53:59;;;;;;;180.32;131.57;;;;;;;12.41;100.00;97347.72;5056475;28;20100;-54
2023/12/24 05:56:25;;;;;;;217.60;194.02;;;;;;;13.29;100.00;97344.88;5056439;28;20044;-55
2023/12/24 05:58:50;;;;;;;113.95;62.80;;;;;;;13.70;100.00;97343.88;5055186;28;20161;-55
2023/12/24 06:01:16;;;;;;;167.63;132.40;;;;;;;12.83;100.00;97352.91;5053729;28;20044;-54
2023/12/24 06:03:41;;;;;;;254.60;192.43;;;;;;;12.58;100.00;97366.47;5054517;28;20028;-54
2023/12/24 06:06:07;;;;;;;122.75;91.90;;;;;;;12.05;100.00;97362.34;5055451;28;20392;-54
2023/12/24 06:08:32;;;;;;;167.45;86.60;;;;;;;11.87;100.00;97360.91;5053409;28;20048;-55
2023/12/24 06:10:57;;;;;;;378.20;338.48;;;;;;;12.30;100.00;97359.25;5053684;28;20037;-55
2023/12/24 06:13:23;;;;;;;109.32;68.57;;;;;;;12.50;100.00;97358.84;5053622;28;20059;-54
2023/12/24 06:15:48;;;;;;;230.40;140.30;;;;;;;12.61;100.00;97361.22;5052232;28;20043;-53
2023/12/24 06:18:13;;;;;;;87.47;42.13;;;;;;;11.82;100.00;97371.44;5055899;28;20369;-53
2023/12/24 06:20:39;;;;;;;278.15;186.43;;;;;;;12.21;100.00;97370.72;5053497;28;20462;-54
2023/12/24 06:23:04;;;;;;;123.95;86.25;;;;;;;11.85;100.00;97373.97;5053205;28;20621;-53
2023/12/24 06:25:30;;;;;;;101.57;61.28;;;;;;;12.07;100.00;97364.91;5054531;28;20033;-55
2023/12/24 06:27:55;;;;;;;76.18;14.48;;;;;;;12.01;100.00;97362.38;5051606;28;20028;-53
2023/12/24 06:30:21;;;;;;;83.75;17.17;;;;;;;11.01;100.00;97357.16;5054625;28;20451;-54
2023/12/24 06:32:47;;;;;;;207.15;79.15;;;;;;;10.89;100.00;97367.72;5053780;28;20035;-54
2023/12/24 06:35:13;;;;;;;222.30;198.45;;;;;;;10.93;100.00;97372.00;5056469;28;20107;-53
2023/12/24 06:37:39;;;;;;;194.77;132.68;;;;;;;11.00;100.00;97377.97;5053473;28;20108;-55
2023/12/24 06:40:05;;;;;;;81.35;31.23;;;;;;;10.69;100.00;97384.47;5055832;28;20028;-54
2023/12/24 06:42:30;;;;;;;158.60;130.75;;;;;;;11.11;100.00;97385.63;5055313;28;20021;-54
2023/12/24 06:44:56;;;;;;;207.68;153.48;;;;;;;10.89;100.00;97383.34;5052782;28;20035;-54
2023/12/24 06:47:21;;;;;;;77.82;31.05;;;;;;;10.48;100.00;97391.69;5054962;28;20118;-54
2023/12/24 06:49:46;;;;;;;165.88;111.93;;;;;;;10.67;100.00;97381.03;5053714;28;20024;-54
2023/12/24 06:52:12;;;;;;;88.78;14.68;;;;;;;10.21;100.00;97385.06;5054936;28;20059;-55
2023/12/24 06:54:37;;;;;;;135.48;44.03;;;;;;;10.37;100.00;97381.41;5054925;28;20365;-53
2023/12/24 06:57:04;;;;;;;112.95;75.95;;;;;;;10.42;100.00;97378.72;5054789;28;20064;-54
2023/12/24 06:59:30;;;;;;;161.10;114.05;;;;;;;10.49;100.00;97374.34;5053421;28;20062;-55
2023/12/24 07:01:55;;;;;;;105.88;43.20;;;;;;;9.91;100.00;97380.16;5052492;28;20119;-53
2023/12/24 07:04:20;;;;;;;118.95;104.68;;;;;;;9.87;100.00;97370.69;5055807;28;20036;-53
2023/12/24 07:06:46;;;;;;;134.63;28.92;;;;;;;9.50;100.00;97372.78;5052996;28;20477;-55
2023/12/24 07:09:12;;;;;;;113.75;30.67;;;;;;;9.84;100.00;97379.34;5054915;28;20468;-55
2023/12/24 07:11:37;;;;;;;148.13;81.07;;;;;;;10.02;100.00;97378.31;5052635;28;20066;-56
2023/12/24 07:14:03;;;;;;;162.60;111.55;;;;;;;9.88;100.00;97375.84;5052990;28;20112;-53
2023/12/24 07:16:28;;;;;;;111.15;53.00;;;;;;;10.03;100.00;97374.00;5054546;28;20035;-53
2023/12/24 07:18:54;;;;;;;127.03;82.45;;;;;;;10.16;100.00;97382.50;5053146;28;20456;-55
2023/12/24 07:21:19;;;;;;;219.40;166.85;;;;;;;9.76;100.00;97381.19;5054307;28;20032;-53
2023/12/24 07:23:45;;;;;;;255.75;141.93;;;;;;;9.75;100.00;97382.06;5053337;28;20036;-55
2023/12/24 07:26:10;;;;;;;126.18;85.82;;;;;;;9.87;100.00;97376.75;5054477;28;20029;-55
2023/12/24 07:28:35;;;;;;;90.70;22.30;;;;;;;9.71;100.00;97389.03;5053275;28;20066;-53
2023/12/24 07:31:01;;;;;;;107.70;51.47;;;;;;;10.01;100.00;97392.19;5053738;28;20412;-53
2023/12/24 07:33:26;;;;;;;244.77;192.43;;;;;;;9.91;100.00;97395.75;5053895;28;20373;-53
2023/12/24 07:35:51;;;;;;;188.02;62.10;;;;;;;9.62;100.00;97381.31;5050448;28;20036;-53
2023/12/24 07:38:17;;;;;;;137.43;108.95;;;;;;;9.76;100.00;97394.16;5054649;28;20024;-55
2023/12/24 07:40:42;;;;;;;121.25;27.15;;;;;;;9.37;100.00;97386.72;5050843;28;20115;-54
2023/12/24 07:43:07;;;;;;;172.23;114.20;;;;;;;9.32;100.00;97399.72;5054306;28;20429;-55
2023/12/24 07:45:33;;;;;;;104.53;50.95;;;;;;;9.42;100.00;97387.53;5054889;28;20474;-55
2023/12/24 07:47:58;;;;;;;70.78;13.43;;;;;;;9.38;100.00;97383.25;5052471;28;20017;-53
2023/12/24 07:50:23;;;;;;;159.40;96.28;;;;;;;9.61;100.00;97380.47;5053803;28;20039;-53
2023/12/24 07:52:48;;;;;;;173.50;76.95;;;;;;;9.42;100.00;97384.94;5052793;28;20020;-54
2023/12/24 07:55:14;;;;;;;144.52;109.95;;;;;;;9.62;100.00;97382.16;5053885;28;20012;-54
2023/12/24 07:57:39;;;;;;;150.15;71.38;;;;;;;9.24;100.00;97371.25;5053325;28;20476;-55
2023/12/24 08:00:08;;;;;;;100.35;73.00;;;;;;;9.54;100.00;97376.19;5054651;28;20047;-54
2023/12/24 08:02:34;;;;;;;194.10;161.40;;;;;;;9.29;100.00;97375.53;5054447;28;20037;-53
2023/12/24 08:04:59;;;;;;;91.75;13.98;;;;;;;9.40;100.00;97384.13;5051793;28;20032;-54
2023/12/24 08:07:25;;;;;;;86.95;37.25;;;;;;;9.40;100.00;97385.84;5055031;28;20108;-55
2023/12/24 08:09:50;;;;;;;104.63;16.25;;;;;;;9.22;100.00;97383.41;5051310;28;20064;-55
2023/12/24 08:12:16;;;;;;;90.70;18.23;;;;;;;9.18;100.00;97384.28;5054419;28;20037;-53
2023/12/24 08:14:41;;;;;;;105.05;14.57;;;;;;;9.45;100.00;97389.25;5054389;28;20036;-54
2023/12/24 08:17:07;;;;;;;84.80;16.73;;;;;;;9.37;100.00;97378.94;5056900;28;20034;-54
2023/12/24 08:19:32;;;;;;;156.45;104.05;;;;;;;9.26;100.00;97373.84;5058493;28;20032;-54
2023/12/24 08:21:58;;;;;;;135.00;92.07;;;;;;;9.22;100.00;97383.41;5056802;28;20370;-56
2023/12/24 08:24:23;;;;;;;84.40;30.10;;;;;;;9.10;100.00;97380.88;5058844;28;20074;-55
2023/12/24 08:26:48;;;;;;;257.92;144.75;;;;;;;9.28;100.00;97377.28;5055934;28;20038;-54
2023/12/24 08:29:14;;;;;;;85.78;27.27;;;;;;;9.00;100.00;97380.09;5058722;28;20017;-54
2023/12/24 08:31:40;;;;;;;86.57;27.20;;;;;;;8.90;100.00;97378.44;5056206;28;20052;-54
2023/12/24 08:34:06;;;;;;;120.93;67.53;;;;;;;9.09;100.00;97384.34;5058271;28;20305;-54
2023/12/24 08:36:31;;;;;;;110.60;52.17;;;;;;;8.90;100.00;97387.06;5055962;28;20555;-54
2023/12/24 08:38:56;;;;;;;205.63;108.72;;;;;;;8.97;100.00;97386.16;5055702;28;20439;-54
2023/12/24 08:41:22;;;;;;;196.70;129.00;;;;;;;9.06;100.00;97387.81;5057603;28;20416;-54
2023/12/24 08:43:47;;;;;;;168.95;93.50;;;;;;;8.91;100.00;97387.94;5057750;28;20316;-55
2023/12/24 08:46:13;;;;;;;202.25;154.23;;;;;;;9.13;100.00;97392.97;5057984;28;20028;-56
2023/12/24 08:48:38;;;;;;;111.28;43.72;;;;;;;9.06;100.00;97389.56;5058725;28;20048;-55
2023/12/24 08:51:04;;;;;;;96.07;21.95;;;;;;;9.09;100.00;97387.78;5053106;28;20595;-56
2023/12/24 08:53:30;;;;;;;175.40;131.68;;;;;;;9.25;100.00;97383.34;5058647;28;20073;-56
2023/12/24 08:55:55;;;;;;;296.10;180.00;;;;;;;9.32;100.00;97375.53;5055809;28;20051;-55
2023/12/24 08:58:21;;;;;;;113.28;76.00;;;;;;;9.29;100.00;97378.16;5058615;28;20126;-55
2023/12/24 09:00:46;;;;;;;307.50;199.93;;;;;;;9.17;100.00;97373.91;5055652;28;20055;-55
2023/12/24 09:03:11;;;;;;;110.95;85.75;;;;;;;9.17;100.00;97368.72;5051524;28;20040;-54
2023/12/24 09:05:37;;;;;;;119.32;107.00;;;;;;;9.14;100.00;97374.81;5061072;28;20036;-54
2023/12/24 09:08:03;;;;;;;76.90;61.05;;;;;;;9.31;100.00;97372.06;5059592;28;20520;-56
2023/12/24 09:10:28;;;;;;;107.50;63.65;;;;;;;9.26;100.00;97373.84;5060366;28;20040;-55
2023/12/24 09:12:54;;;;;;;108.90;13.07;;;;;;;9.27;100.00;97379.91;5057808;28;20021;-56
2023/12/24 09:15:19;;;;;;;38.33;15.30;;;;;;;9.22;100.00;97388.59;5060838;28;20055;-55
2023/12/24 09:17:44;;;;;;;261.75;191.63;;;;;;;9.33;100.00;97382.44;5058404;28;20104;-56
2023/12/24 09:20:10;;;;;;;52.50;14.05;;;;;;;9.15;100.00;97393.81;5058873;28;20032;-56
2023/12/24 09:22:36;;;;;;;70.68;41.78;;;;;;;8.96;100.00;97400.00;5061258;28;20052;-55
2023/12/24 09:25:01;;;;;;;114.93;72.88;;;;;;;8.78;100.00;97397.50;5060755;28;20032;-55
2023/12/24 09:27:26;;;;;;;124.20;111.00;;;;;;;9.01;100.00;97384.38;5061394;28;20143;-56
2023/12/24 09:29:52;;;;;;;90.53;20.23;;;;;;;8.96;100.00;97389.63;5061977;28;20139;-55
2023/12/24 09:32:17;;;;;;;51.38;10.38;;;;;;;9.08;100.00;97383.50;5061759;28;20550;-56
2023/12/24 09:34:44;;;;;;;72.70;46.58;;;;;;;9.18;100.00;97384.28;5063034;28;20280;-54
2023/12/24 09:37:10;;;;;;;71.82;45.20;;;;;;;9.28;100.00;97387.66;5062035;28;20036;-57
2023/12/24 09:39:36;;;;;;;74.82;29.33;;;;;;;8.93;100.00;97386.19;5063017;28;20031;-56
2023/12/24 09:42:02;;;;;;;69.38;41.03;;;;;;;8.87;100.00;97384.47;5060325;28;20044;-55
2023/12/24 09:44:27;;;;;;;205.88;183.45;;;;;;;9.20;100.00;97381.66;5062863;28;20448;-57
2023/12/24 09:46:53;;;;;;;88.25;20.88;;;;;;;9.30;100.00;97382.44;5059183;28;20040;-56
2023/12/24 09:49:18;;;;;;;107.78;70.60;;;;;;;9.13;100.00;97388.63;5062492;28;20020;-56
2023/12/24 09:51:43;;;;;;;79.88;28.75;;;;;;;9.30;100.00;97387.63;5061028;28;20090;-56
2023/12/24 09:54:09;;;;;;;111.45;97.85;;;;;;;9.35;100.00;97385.88;5055843;28;20016;-57
2023/12/24 09:56:34;;;;;;;45.97;8.43;;;;;;;9.02;100.00;97393.03;5062592;28;20499;-57
2023/12/24 09:59:00;;;;;;;319.77;253.77;;;;;;;9.23;100.00;97384.22;5060918;28;20035;-57
2023/12/24 10:01:25;;;;;;;45.00;10.55;;;;;;;8.88;100.00;97375.84;5061527;28;20134;-56
2023/12/24 10:03:51;;;;;;;219.05;187.60;;;;;;;9.44;100.00;97380.63;5060927;28;20032;-56
2023/12/24 10:06:17;;;;;;;98.43;66.35;;;;;;;9.10;100.00;97378.28;5061880;28;20036;-55
2023/12/24 10:08:43;;;;;;;76.45;43.53;;;;;;;9.43;100.00;97376.28;5061625;28;20545;-55
2023/12/24 10:11:23;;;;;;;99.82;40.63;;;;;;;9.32;100.00;97378.97;5058995;28;20040;-54
2023/12/24 10:14:01;;;;;;;214.60;170.02;;;;;;;9.63;100.00;97370.06;5060997;28;20063;-54
2023/12/24 10:16:27;;;;;;;110.38;82.97;;;;;;;9.38;100.00;97371.16;5061723;28;20135;-53
2023/12/24 10:18:55;;;;;;;117.25;18.45;;;;;;;9.53;100.00;97368.44;5059819;28;20043;-54
2023/12/24 10:21:20;;;;;;;53.45;29.75;;;;;;;9.40;100.00;97370.25;5054031;28;20030;-53
2023/12/24 10:23:46;;;;;;;83.55;44.97;;;;;;;9.62;100.00;97370.94;5061327;28;20289;-54
2023/12/24 10:26:12;;;;;;;155.18;125.88;;;;;;;9.44;100.00;97367.66;5061493;28;20135;-58
2023/12/24 10:28:51;;;;;;;125.80;100.97;;;;;;;9.16;100.00;97362.66;5062315;28;20385;-54
2023/12/24 10:31:16;;;;;;;162.75;127.35;;;;;;;9.30;100.00;97361.69;5060096;28;20463;-53
2023/12/24 10:33:42;;;;;;;100.70;86.82;;;;;;;9.15;100.00;97367.88;5061828;28;20033;-53
2023/12/24 10:36:08;;;;;;;102.95;79.47;;;;;;;9.34;100.00;97360.78;5060645;28;20101;-54
2023/12/24 10:38:35;;;;;;;182.75;116.15;;;;;;;9.61;100.00;97359.69;5060315;28;20089;-55
2023/12/24 10:41:02;;;;;;;122.18;41.60;;;;;;;9.72;100.00;97362.19;5056662;28;21137;-54
2023/12/24 10:43:28;;;;;;;90.95;71.82;;;;;;;9.65;100.00;97360.50;5060359;28;20628;-54
2023/12/24 10:45:54;;;;;;;121.82;44.15;;;;;;;9.71;100.00;97354.41;5058246;28;20511;-55
2023/12/24 10:48:19;;;;;;;111.40;88.82;;;;;;;9.74;100.00;97350.06;5060632;28;20035;-57
2023/12/24 10:50:46;;;;;;;50.03;15.00;;;;;;;9.74;100.00;97344.00;5058352;28;20312;-53
2023/12/24 10:53:13;;;;;;;58.00;19.58;;;;;;;9.96;100.00;97352.41;5060321;28;20032;-54
2023/12/24 10:55:39;;;;;;;100.10;89.53;;;;;;;9.82;100.00;97347.38;5060164;28;20040;-55